Bellingham, WA

10:09 AM PST on February 08, 2016 (GMT -0800)
Columbia-Eldridge Marimba Palace | | Change Station
CLOSE
Current Station
Personal Weather Station
Location: Bellingham, WA
Elevation: 97 ft
Nearby Weather Stations

Elev 97 ft 48.76 °N, 122.50 °W | Updated 22 seconds ago

Clear
Clear
47.3 °F
Feels Like 47 °F
N
3.1
Wind Variable Wind from North
Gusts 3.4 mph

Today
High -- | Low -- °F
--% Chance of Precip.
Yesterday
High -- | Low -- °F
Precip. -- in
Pressure 30.52 in
Visibility 10.0 miles
Clouds Clear
Windchill 47 °F
Dew Point 42 °F
Humidity 81%
Rainfall 0.00 in
Snow Depth Not available.
7:29 AM 5:18 PM
New Moon, 0% visible
METAR KBLI 081753Z 02007KT 10SM CLR 08/04 A3049 RMK AO2 SLP334 T00830039 10083 20039 51003
Pressure 30.52 in
Visibility 10.0 miles
Clouds Clear
Windchill 47 °F
Dew Point 42 °F
Humidity 81%
Rainfall 0.00 in
Snow Depth Not available.
7:29 AM 5:18 PM
New Moon, 0% visible
METAR KBLI 081753Z 02007KT 10SM CLR 08/04 A3049 RMK AO2 SLP334 T00830039 10083 20039 51003

10-Day Weather Forecast

Almanac

Astronomy

Feb. 08, 2016 Rise Set
Actual Time
Civil Twilight
Nautical Twilight
Astronomical Twilight
Moon
Length of Visible Light
Length of Day
Tomorrow will be .
, % of the Moon is Illuminated

Today's Extremes

State Highs State Lows

Community

WunderPhotos

Upload Photos

1,891,475 photos uploaded!

WunderBlog® & News

Nearby

Air Quality

  Air Quality AQ Index Pollutant
Not available.

Snow Depth

Station Depth Elevation

Earthquake Activity

City Distance Mag. Time & Date
Minimum magnitude displayed is 2.5.

Coastal Water Temperatures

Place Temperature

Stations

Nearby Weather Stations

Station Location Temp. Windchill Dew Point Humidity Wind Precip. Elev Updated Type
                   

Watches & Warnings

There are currently no watches in effect.